Time;durP1;ratioP1;P1;durP2;ratioP2;P2;SDS_P1;SDS_P2;PMS_P1;PMS_P2;Temp;Humidity;BMP_temperature;BMP_pressure;BME280_temperature;BME280_humidity;BME280_pressure;Samples;Min_cycle;Max_cycle;Signal;HPM_P1;HPM_P2
2021/10/29 00:01:08;;;;;;;30.52;16.00;;;;;;;;;;5020114;28;20109;-81
2021/10/29 00:03:36;;;;;;;28.52;15.23;;;;;;;;;;5018149;28;20085;-81
2021/10/29 00:06:03;;;;;;;28.35;16.00;;;;;;;;;;5027587;28;20061;-82
2021/10/29 00:08:31;;;;;;;25.73;15.23;;;;;;;;;;5015957;28;20054;-82
2021/10/29 00:10:58;;;;;;;25.58;15.63;;;;;;;;;;5008572;28;20414;-83
2021/10/29 00:13:25;;;;;;;31.83;16.65;;;;;;;;;;5023725;28;20061;-83
2021/10/29 00:15:55;;;;;;;25.70;15.80;;;;;;;;;;5004563;28;20373;-82
2021/10/29 00:18:25;;;;;;;31.33;17.95;;;;;;;;;;5006093;28;20041;-82
2021/10/29 00:20:55;;;;;;;29.58;16.95;;;;;;;;;;5006809;28;20049;-82
2021/10/29 00:23:27;;;;;;;33.45;16.85;;;;;;;;;;5024467;28;20216;-83
2021/10/29 00:25:54;;;;;;;31.60;17.35;;;;;;;;;;5022921;28;20317;-82
2021/10/29 00:28:23;;;;;;;32.38;16.50;;;;;;;;;;5005701;28;20396;-82
2021/10/29 00:30:54;;;;;;;37.22;17.58;;;;;;;;;;5023760;28;20060;-82
2021/10/29 00:33:28;;;;;;;30.55;18.02;;;;;;;;;;5023907;28;20058;-82
2021/10/29 00:35:54;;;;;;;29.10;17.70;;;;;;;;;;5024309;28;20073;-83
2021/10/29 00:38:21;;;;;;;30.40;16.48;;;;;;;;;;5006662;28;20049;-83
2021/10/29 00:41:00;;;;;;;27.17;16.73;;;;;;;;;;5024370;28;20056;-82
2021/10/29 00:43:26;;;;;;;35.22;19.02;;;;;;;;;;5024602;28;20114;-83
2021/10/29 00:45:53;;;;;;;32.47;18.02;;;;;;;;;;5006271;28;20050;-83
2021/10/29 00:48:27;;;;;;;32.60;19.45;;;;;;;;;;5004881;28;20050;-82
2021/10/29 00:50:59;;;;;;;34.67;18.90;;;;;;;;;;5021145;28;20065;-83
2021/10/29 00:53:26;;;;;;;40.63;20.75;;;;;;;;;;5021147;28;20049;-83
2021/10/29 00:55:54;;;;;;;32.83;20.08;;;;;;;;;;5005361;28;20091;-83
2021/10/29 00:58:21;;;;;;;34.63;20.35;;;;;;;;;;5022460;28;20065;-83
2021/10/29 01:00:57;;;;;;;34.88;20.48;;;;;;;;;;5007514;28;20050;-83
2021/10/29 01:03:28;;;;;;;35.17;21.25;;;;;;;;;;5005977;28;20100;-83
2021/10/29 01:05:58;;;;;;;36.80;21.00;;;;;;;;;;5021689;28;20045;-83
2021/10/29 01:08:25;;;;;;;36.60;21.10;;;;;;;;;;5004337;28;20073;-83
2021/10/29 01:10:59;;;;;;;38.75;22.13;;;;;;;;;;5004348;28;20080;-82
2021/10/29 01:13:29;;;;;;;35.78;20.38;;;;;;;;;;5019215;28;20374;-82
2021/10/29 01:15:55;;;;;;;39.35;21.55;;;;;;;;;;5019529;28;20406;-83
2021/10/29 01:18:34;;;;;;;40.67;22.80;;;;;;;;;;5020763;28;20409;-82
2021/10/29 01:21:01;;;;;;;40.67;22.08;;;;;;;;;;5019718;28;20485;-83
2021/10/29 01:23:28;;;;;;;40.95;23.60;;;;;;;;;;5002654;28;20089;-82
2021/10/29 01:26:10;;;;;;;39.92;21.90;;;;;;;;;;5021035;28;20050;-83
2021/10/29 01:28:40;;;;;;;42.13;24.10;;;;;;;;;;5020481;28;20341;-83
2021/10/29 01:31:07;;;;;;;44.97;25.27;;;;;;;;;;5020422;28;20462;-83
2021/10/29 01:33:33;;;;;;;43.45;24.70;;;;;;;;;;5003447;28;20129;-83
2021/10/29 01:36:01;;;;;;;42.40;24.25;;;;;;;;;;5004434;28;20050;-83
2021/10/29 01:38:32;;;;;;;50.85;24.45;;;;;;;;;;5020772;28;20417;-81
2021/10/29 01:40:59;;;;;;;41.92;23.98;;;;;;;;;;5003445;28;20062;-81
2021/10/29 01:43:30;;;;;;;45.30;25.77;;;;;;;;;;5021364;28;20406;-81
2021/10/29 01:45:56;;;;;;;43.72;25.33;;;;;;;;;;5002908;28;20053;-81
2021/10/29 01:48:32;;;;;;;42.00;24.67;;;;;;;;;;5023024;28;20328;-81
2021/10/29 01:50:59;;;;;;;40.97;23.60;;;;;;;;;;5004870;28;20070;-81
2021/10/29 01:53:31;;;;;;;41.92;24.60;;;;;;;;;;5020808;28;20058;-81
2021/10/29 01:55:58;;;;;;;44.22;24.33;;;;;;;;;;5002322;28;20061;-81
2021/10/29 01:58:25;;;;;;;45.45;25.13;;;;;;;;;;5020261;28;20053;-81
2021/10/29 02:00:52;;;;;;;49.15;25.33;;;;;;;;;;5002049;28;20324;-81
2021/10/29 02:03:23;;;;;;;49.25;27.42;;;;;;;;;;5003628;28;20142;-81
2021/10/29 02:05:52;;;;;;;42.40;24.08;;;;;;;;;;5020357;28;20045;-83
2021/10/29 02:08:23;;;;;;;43.08;23.73;;;;;;;;;;5004266;28;20057;-80
2021/10/29 02:10:53;;;;;;;41.42;24.30;;;;;;;;;;5002879;28;20148;-81
2021/10/29 02:13:23;;;;;;;44.97;23.98;;;;;;;;;;5002868;28;20061;-81
2021/10/29 02:15:52;;;;;;;44.25;24.65;;;;;;;;;;5004341;28;20073;-80
2021/10/29 02:18:21;;;;;;;42.60;24.30;;;;;;;;;;5020909;28;20079;-81
2021/10/29 02:20:48;;;;;;;41.75;23.50;;;;;;;;;;5003270;28;20046;-81
2021/10/29 02:23:22;;;;;;;46.63;23.77;;;;;;;;;;5001810;28;20338;-81
2021/10/29 02:25:58;;;;;;;40.13;22.90;;;;;;;;;;5002410;28;20073;-81
2021/10/29 02:28:25;;;;;;;45.13;23.60;;;;;;;;;;5016336;28;20282;-81
2021/10/29 02:31:00;;;;;;;42.03;24.05;;;;;;;;;;5003079;28;20385;-80
2021/10/29 02:33:30;;;;;;;42.53;22.88;;;;;;;;;;5020919;28;20053;-81
2021/10/29 02:35:56;;;;;;;39.22;22.90;;;;;;;;;;5019885;28;20393;-81
2021/10/29 02:38:26;;;;;;;43.53;23.83;;;;;;;;;;5021970;28;20117;-82
2021/10/29 02:40:58;;;;;;;38.97;22.45;;;;;;;;;;5020478;28;20057;-82
2021/10/29 02:43:31;;;;;;;42.05;23.05;;;;;;;;;;5004275;28;20049;-81
2021/10/29 02:45:57;;;;;;;42.00;23.02;;;;;;;;;;5003782;28;20046;-82
2021/10/29 02:48:37;;;;;;;41.95;22.70;;;;;;;;;;5005910;28;20056;-81
2021/10/29 02:51:04;;;;;;;38.38;22.67;;;;;;;;;;5021593;28;20066;-82
2021/10/29 02:53:31;;;;;;;44.13;22.88;;;;;;;;;;5020763;28;20049;-81
2021/10/29 02:55:58;;;;;;;42.92;24.17;;;;;;;;;;5017054;28;20045;-82
2021/10/29 02:58:30;;;;;;;37.92;22.00;;;;;;;;;;5002986;28;20050;-81
2021/10/29 03:00:57;;;;;;;38.97;22.95;;;;;;;;;;5005462;28;20050;-82
2021/10/29 03:03:36;;;;;;;44.33;23.48;;;;;;;;;;5007117;28;20056;-82
2021/10/29 03:06:03;;;;;;;42.97;22.50;;;;;;;;;;5014912;28;20046;-82
2021/10/29 03:08:30;;;;;;;42.20;22.85;;;;;;;;;;5007767;28;20050;-81
2021/10/29 03:11:00;;;;;;;41.33;22.88;;;;;;;;;;4999648;28;20511;-80
2021/10/29 03:13:30;;;;;;;40.75;21.77;;;;;;;;;;5016627;28;20081;-81
2021/10/29 03:15:57;;;;;;;37.35;20.90;;;;;;;;;;5000146;28;20050;-81
2021/10/29 03:18:29;;;;;;;38.78;20.60;;;;;;;;;;5016924;28;20073;-81
2021/10/29 03:21:02;;;;;;;37.97;21.77;;;;;;;;;;5000657;28;20357;-81
2021/10/29 03:23:29;;;;;;;41.10;22.63;;;;;;;;;;5018264;28;20414;-81
2021/10/29 03:25:56;;;;;;;38.40;20.90;;;;;;;;;;5001026;28;20152;-81
2021/10/29 03:28:23;;;;;;;40.65;22.48;;;;;;;;;;4999937;28;20073;-81
2021/10/29 03:30:54;;;;;;;39.35;21.30;;;;;;;;;;4997777;28;20054;-81
2021/10/29 03:33:38;;;;;;;40.28;21.05;;;;;;;;;;4995346;28;20255;-81
2021/10/29 03:36:06;;;;;;;40.50;21.48;;;;;;;;;;4997922;28;20172;-82
2021/10/29 03:38:51;;;;;;;41.33;21.77;;;;;;;;;;4998008;28;20053;-82
2021/10/29 03:41:23;;;;;;;40.05;21.20;;;;;;;;;;5001173;28;20050;-82
2021/10/29 03:44:00;;;;;;;34.83;20.23;;;;;;;;;;4982526;28;20046;-82
2021/10/29 03:46:29;;;;;;;36.47;20.30;;;;;;;;;;4983144;28;20055;-82
2021/10/29 03:51:34;;;;;;;44.55;21.38;;;;;;;;;;5000451;28;20066;-81
2021/10/29 03:54:08;;;;;;;32.65;19.33;;;;;;;;;;5001967;28;20193;-82
2021/10/29 03:56:45;;;;;;;40.75;20.40;;;;;;;;;;4982556;28;20408;-81
2021/10/29 03:59:15;;;;;;;40.83;21.20;;;;;;;;;;4982305;28;20061;-81
2021/10/29 04:01:42;;;;;;;39.97;20.60;;;;;;;;;;4982615;28;20062;-81
2021/10/29 04:04:12;;;;;;;42.50;21.88;;;;;;;;;;4984433;28;20050;-81
2021/10/29 04:06:38;;;;;;;41.30;20.70;;;;;;;;;;5000229;28;20303;-81
2021/10/29 04:09:05;;;;;;;36.85;19.95;;;;;;;;;;5000049;28;20263;-81
2021/10/29 04:11:38;;;;;;;36.42;20.17;;;;;;;;;;4999979;28;20077;-82
2021/10/29 04:14:05;;;;;;;39.50;20.42;;;;;;;;;;4982228;28;20223;-81
2021/10/29 04:16:36;;;;;;;40.75;21.15;;;;;;;;;;4996592;28;20245;-81
2021/10/29 04:19:04;;;;;;;36.40;20.83;;;;;;;;;;4981088;28;20411;-81
2021/10/29 04:21:31;;;;;;;37.97;19.95;;;;;;;;;;4993451;28;20077;-82
2021/10/29 04:23:57;;;;;;;39.05;19.42;;;;;;;;;;5000188;28;20085;-82
2021/10/29 04:26:24;;;;;;;35.17;19.70;;;;;;;;;;4997795;28;20041;-81
2021/10/29 04:28:55;;;;;;;37.72;19.00;;;;;;;;;;5017389;28;20053;-81
2021/10/29 04:31:26;;;;;;;33.92;18.65;;;;;;;;;;5001821;28;20089;-82
2021/10/29 04:33:52;;;;;;;37.88;18.58;;;;;;;;;;5017932;28;20133;-82
2021/10/29 04:36:23;;;;;;;33.83;17.77;;;;;;;;;;4998407;28;20050;-82
2021/10/29 04:38:58;;;;;;;34.83;18.15;;;;;;;;;;4998396;28;20058;-81
2021/10/29 04:41:24;;;;;;;33.70;18.30;;;;;;;;;;4999419;28;20107;-81
2021/10/29 04:43:51;;;;;;;34.75;19.77;;;;;;;;;;4987133;28;20081;-81
2021/10/29 04:46:18;;;;;;;33.50;18.42;;;;;;;;;;4994438;28;20422;-81
2021/10/29 04:48:45;;;;;;;38.60;18.98;;;;;;;;;;4976389;28;20047;-82
2021/10/29 04:51:12;;;;;;;35.80;17.25;;;;;;;;;;4977136;28;20110;-81
2021/10/29 04:53:41;;;;;;;32.85;18.10;;;;;;;;;;4996055;28;20061;-82
2021/10/29 04:56:09;;;;;;;41.05;18.50;;;;;;;;;;4977915;28;20292;-81
2021/10/29 04:58:38;;;;;;;35.90;18.83;;;;;;;;;;5013213;28;20144;-81
2021/10/29 05:01:05;;;;;;;36.28;17.88;;;;;;;;;;5013045;28;20139;-81
2021/10/29 05:03:35;;;;;;;33.38;18.30;;;;;;;;;;4995356;28;20088;-83
2021/10/29 05:06:08;;;;;;;34.38;17.98;;;;;;;;;;4996165;28;20326;-83
2021/10/29 05:08:41;;;;;;;32.67;18.45;;;;;;;;;;4996655;28;20246;-83
2021/10/29 05:11:10;;;;;;;34.50;19.55;;;;;;;;;;4995188;28;20158;-84
2021/10/29 05:13:43;;;;;;;39.03;19.50;;;;;;;;;;5011878;28;20053;-83
2021/10/29 05:16:10;;;;;;;32.33;18.75;;;;;;;;;;4994913;28;20108;-83
2021/10/29 05:18:47;;;;;;;35.90;17.75;;;;;;;;;;5012793;28;20204;-83
2021/10/29 05:21:14;;;;;;;34.67;19.15;;;;;;;;;;4996166;28;20220;-83
2021/10/29 05:23:40;;;;;;;33.40;17.70;;;;;;;;;;4998214;28;20148;-82
2021/10/29 05:26:07;;;;;;;34.95;18.17;;;;;;;;;;5011902;28;20182;-82
2021/10/29 05:28:37;;;;;;;37.78;19.55;;;;;;;;;;4994362;28;20165;-83
2021/10/29 05:31:07;;;;;;;38.13;19.17;;;;;;;;;;5005672;28;20116;-83
2021/10/29 05:33:34;;;;;;;36.40;18.30;;;;;;;;;;5008617;28;20050;-83
2021/10/29 05:36:07;;;;;;;38.38;18.67;;;;;;;;;;5031969;28;20053;-83
2021/10/29 05:38:34;;;;;;;40.15;19.98;;;;;;;;;;5031364;28;20053;-83
2021/10/29 05:41:02;;;;;;;35.95;17.95;;;;;;;;;;5016700;28;20562;-83
2021/10/29 05:43:32;;;;;;;37.42;19.40;;;;;;;;;;4994351;28;20077;-85
2021/10/29 05:46:11;;;;;;;37.95;19.55;;;;;;;;;;4995788;28;20199;-83
2021/10/29 05:48:40;;;;;;;34.72;18.88;;;;;;;;;;4994785;28;20061;-83
2021/10/29 05:51:10;;;;;;;35.78;18.95;;;;;;;;;;4994868;28;20133;-84
2021/10/29 05:56:05;;;;;;;38.15;17.73;;;;;;;;;;5011730;28;20144;-83
2021/10/29 05:58:35;;;;;;;38.55;18.88;;;;;;;;;;4999286;28;20524;-82
2021/10/29 06:01:11;;;;;;;35.63;18.35;;;;;;;;;;4988010;28;20201;-83
2021/10/29 06:03:39;;;;;;;34.72;18.42;;;;;;;;;;5021585;28;20037;-84
2021/10/29 06:06:14;;;;;;;37.67;19.48;;;;;;;;;;4996365;28;20075;-84
2021/10/29 06:08:46;;;;;;;46.03;19.70;;;;;;;;;;4994258;28;20183;-83
2021/10/29 06:11:26;;;;;;;37.50;19.23;;;;;;;;;;5008299;28;20049;-83
2021/10/29 06:14:01;;;;;;;37.05;19.25;;;;;;;;;;5013674;28;20475;-83
2021/10/29 06:16:29;;;;;;;37.42;19.90;;;;;;;;;;5009369;28;20061;-83
2021/10/29 06:18:56;;;;;;;38.38;19.75;;;;;;;;;;4993450;28;20066;-82
2021/10/29 06:22:10;;;;;;;37.50;19.83;;;;;;;;;;4995877;28;20083;-83
2021/10/29 06:24:16;;;;;;;41.15;19.48;;;;;;;;;;5000145;28;20148;-84
2021/10/29 06:26:51;;;;;;;37.08;19.17;;;;;;;;;;5013124;28;20056;-83
2021/10/29 06:29:18;;;;;;;34.53;18.10;;;;;;;;;;5011101;28;20372;-84
2021/10/29 06:31:45;;;;;;;33.90;19.27;;;;;;;;;;5010607;28;20088;-83
2021/10/29 06:34:13;;;;;;;33.13;18.00;;;;;;;;;;5010342;28;20170;-83
2021/10/29 06:36:40;;;;;;;37.10;18.67;;;;;;;;;;5012552;28;20049;-84
2021/10/29 06:39:10;;;;;;;34.45;18.30;;;;;;;;;;5013406;28;20087;-83
2021/10/29 06:41:37;;;;;;;38.60;17.77;;;;;;;;;;5005580;28;20046;-83
2021/10/29 07:01:17;;;;;;;33.92;16.13;;;;;;;;;;5008139;28;20050;-84
2021/10/29 07:40:09;;;;;;;24.60;12.02;;;;;;;;;;5008632;28;20153;-83
2021/10/29 07:42:44;;;;;;;21.50;12.20;;;;;;;;;;4993613;28;20222;-84
2021/10/29 07:45:12;;;;;;;21.67;12.07;;;;;;;;;;4995062;28;20041;-84
2021/10/29 07:47:39;;;;;;;21.30;12.45;;;;;;;;;;4994412;28;20071;-85
2021/10/29 07:50:14;;;;;;;21.05;12.68;;;;;;;;;;4996398;28;20057;-84
2021/10/29 07:52:41;;;;;;;24.10;13.43;;;;;;;;;;4994838;28;20050;-84
2021/10/29 07:55:10;;;;;;;19.38;11.40;;;;;;;;;;4995338;28;20557;-84
2021/10/29 07:57:40;;;;;;;22.58;12.43;;;;;;;;;;5012321;28;20199;-84
2021/10/29 08:00:10;;;;;;;26.05;13.43;;;;;;;;;;4994754;28;20113;-84
2021/10/29 08:02:40;;;;;;;25.00;12.90;;;;;;;;;;4981701;28;20084;-84
2021/10/29 08:05:10;;;;;;;25.75;12.73;;;;;;;;;;5014636;28;20123;-84
2021/10/29 08:07:40;;;;;;;20.95;12.63;;;;;;;;;;5006386;28;20077;-83
2021/10/29 08:10:10;;;;;;;20.58;12.07;;;;;;;;;;5011816;28;20164;-84
2021/10/29 08:12:38;;;;;;;25.40;12.25;;;;;;;;;;5009679;28;20189;-84
2021/10/29 08:15:09;;;;;;;21.73;12.20;;;;;;;;;;4992949;28;20069;-83
2021/10/29 08:17:36;;;;;;;23.35;11.98;;;;;;;;;;5001208;28;20156;-84
2021/10/29 08:20:06;;;;;;;22.42;12.43;;;;;;;;;;5015319;28;20049;-84
2021/10/29 08:22:37;;;;;;;22.05;11.38;;;;;;;;;;4993238;28;20050;-84
2021/10/29 08:25:06;;;;;;;20.65;11.65;;;;;;;;;;4994815;28;20242;-83
2021/10/29 08:27:35;;;;;;;21.23;12.55;;;;;;;;;;4994259;28;20054;-83
2021/10/29 08:30:05;;;;;;;22.02;12.02;;;;;;;;;;4993423;28;20050;-84
2021/10/29 08:32:39;;;;;;;20.88;11.60;;;;;;;;;;4989570;28;20108;-84
2021/10/29 08:35:07;;;;;;;22.63;11.77;;;;;;;;;;4990859;28;20295;-83
2021/10/29 08:37:37;;;;;;;23.88;11.45;;;;;;;;;;4990156;28;20414;-83
2021/10/29 08:40:17;;;;;;;20.27;11.38;;;;;;;;;;5002935;28;20046;-83
2021/10/29 08:42:48;;;;;;;19.73;11.45;;;;;;;;;;4985349;28;20110;-83
2021/10/29 08:45:15;;;;;;;22.38;11.57;;;;;;;;;;4992614;28;20153;-84
2021/10/29 08:47:44;;;;;;;22.17;11.63;;;;;;;;;;4989820;28;20114;-83
2021/10/29 08:50:18;;;;;;;21.87;11.67;;;;;;;;;;4988639;28;20058;-84
2021/10/29 08:52:47;;;;;;;18.30;10.98;;;;;;;;;;4974033;28;20069;-83
2021/10/29 08:55:16;;;;;;;20.83;12.20;;;;;;;;;;4990993;28;20054;-83
2021/10/29 08:57:47;;;;;;;20.27;11.68;;;;;;;;;;4979475;28;20046;-83
2021/10/29 09:00:17;;;;;;;22.27;11.80;;;;;;;;;;4986917;28;20113;-83
2021/10/29 09:03:18;;;;;;;21.25;11.60;;;;;;;;;;4974054;28;20054;-83
2021/10/29 09:06:00;;;;;;;18.35;11.07;;;;;;;;;;4969835;28;20073;-84
2021/10/29 09:17:47;;;;;;;20.48;11.70;;;;;;;;;;4987821;28;20125;-83
2021/10/29 09:31:55;;;;;;;21.70;11.82;;;;;;;;;;5006305;28;20042;-83
2021/10/29 09:34:23;;;;;;;16.83;10.60;;;;;;;;;;4989512;28;20148;-84
2021/10/29 09:36:50;;;;;;;16.75;10.95;;;;;;;;;;4987708;28;20330;-84
2021/10/29 09:39:18;;;;;;;16.30;9.80;;;;;;;;;;4988060;28;20303;-83
2021/10/29 09:41:46;;;;;;;16.75;10.25;;;;;;;;;;5005656;28;20077;-84
2021/10/29 09:44:19;;;;;;;17.02;10.13;;;;;;;;;;4985700;28;20052;-84
2021/10/29 09:46:58;;;;;;;17.13;10.32;;;;;;;;;;4982718;28;20560;-84
2021/10/29 09:49:30;;;;;;;15.32;9.93;;;;;;;;;;4977800;28;20155;-84
2021/10/29 09:57:53;;;;;;;24.92;11.23;;;;;;;;;;5005091;28;20101;-83
2021/10/29 10:00:23;;;;;;;16.35;10.48;;;;;;;;;;4987614;28;20278;-83
2021/10/29 10:02:50;;;;;;;20.00;10.60;;;;;;;;;;4973395;28;20252;-84
2021/10/29 10:05:26;;;;;;;20.13;11.18;;;;;;;;;;4977226;28;20049;-84
2021/10/29 10:08:03;;;;;;;18.23;9.80;;;;;;;;;;5016072;28;20057;-84
2021/10/29 10:10:33;;;;;;;15.32;8.60;;;;;;;;;;4996207;28;20072;-84
2021/10/29 10:13:04;;;;;;;14.98;9.02;;;;;;;;;;5004248;28;20330;-84
2021/10/29 10:15:35;;;;;;;15.93;9.05;;;;;;;;;;5005640;28;20046;-85
2021/10/29 10:18:20;;;;;;;17.02;8.35;;;;;;;;;;4991798;28;20389;-85
2021/10/29 10:20:51;;;;;;;13.57;8.60;;;;;;;;;;5005710;28;20061;-84
2021/10/29 10:23:23;;;;;;;14.35;8.35;;;;;;;;;;4970017;28;20393;-84
2021/10/29 10:43:34;;;;;;;14.73;7.07;;;;;;;;;;5002132;28;20054;-84
2021/10/29 10:46:18;;;;;;;12.05;7.30;;;;;;;;;;4985963;28;20046;-84
2021/10/29 10:49:18;;;;;;;14.18;7.22;;;;;;;;;;4983334;28;20049;-84
2021/10/29 10:54:55;;;;;;;10.82;5.88;;;;;;;;;;4983475;28;20446;-84
2021/10/29 11:00:41;;;;;;;9.82;6.07;;;;;;;;;;4996691;28;20041;-83
2021/10/29 11:03:45;;;;;;;11.50;6.28;;;;;;;;;;4988122;28;20056;-83
2021/10/29 11:06:45;;;;;;;8.98;4.88;;;;;;;;;;5009935;28;20054;-84
2021/10/29 11:12:46;;;;;;;11.55;5.57;;;;;;;;;;4991170;28;20046;-84
2021/10/29 11:15:18;;;;;;;10.57;6.45;;;;;;;;;;4986333;28;20061;-84
2021/10/29 11:17:49;;;;;;;10.30;5.68;;;;;;;;;;4985706;28;20267;-84
2021/10/29 11:20:50;;;;;;;10.07;5.95;;;;;;;;;;4988596;28;20520;-83
2021/10/29 11:23:23;;;;;;;10.27;4.93;;;;;;;;;;4939828;28;20108;-83
2021/10/29 11:26:10;;;;;;;8.38;4.57;;;;;;;;;;4984155;28;20088;-83
2021/10/29 11:28:46;;;;;;;8.45;5.30;;;;;;;;;;5004784;28;20056;-83
2021/10/29 11:31:13;;;;;;;;;;;;;;;;;;4985845;28;20069;-84
2021/10/29 11:33:40;;;;;;;;;;;;;;;;;;4983354;28;20398;-83
2021/10/29 11:36:08;;;;;;;11.05;5.28;;;;;;;;;;5001726;28;20463;-83
2021/10/29 11:38:37;;;;;;;9.63;6.20;;;;;;;;;;4984511;28;20228;-83
2021/10/29 11:41:06;;;;;;;13.30;6.03;;;;;;;;;;4981574;28;20046;-84
2021/10/29 11:43:33;;;;;;;10.07;6.47;;;;;;;;;;4983198;28;20085;-84
2021/10/29 11:46:04;;;;;;;9.50;6.57;;;;;;;;;;4980096;28;20056;-84
2021/10/29 11:48:43;;;;;;;11.07;7.60;;;;;;;;;;4980705;28;20112;-84
2021/10/29 11:51:15;;;;;;;13.43;7.72;;;;;;;;;;4962339;28;20267;-83
2021/10/29 11:53:49;;;;;;;12.55;7.88;;;;;;;;;;4991605;28;20196;-84
2021/10/29 11:56:39;;;;;;;11.85;7.78;;;;;;;;;;5004463;28;20062;-84
2021/10/29 12:07:23;;;;;;;14.15;8.23;;;;;;;;;;5002226;28;20159;-83
2021/10/29 12:09:52;;;;;;;13.43;7.22;;;;;;;;;;4987215;28;20422;-83
2021/10/29 12:12:28;;;;;;;13.05;8.27;;;;;;;;;;4983975;28;20209;-84
2021/10/29 12:14:58;;;;;;;18.17;8.48;;;;;;;;;;5002378;28;20132;-83
2021/10/29 12:19:57;;;;;;;14.40;8.05;;;;;;;;;;4986123;28;20055;-82
2021/10/29 12:25:08;;;;;;;16.30;6.63;;;;;;;;;;4989977;28;20420;-83
2021/10/29 12:28:07;;;;;;;13.50;6.70;;;;;;;;;;4975067;28;20213;-83
2021/10/29 12:30:52;;;;;;;12.05;7.25;;;;;;;;;;4983942;28;20062;-82
2021/10/29 13:01:38;;;;;;;10.25;5.82;;;;;;;;;;4990239;28;20086;-83
2021/10/29 13:04:12;;;;;;;7.32;5.50;;;;;;;;;;5002898;28;20527;-83
2021/10/29 13:06:40;;;;;;;8.27;5.72;;;;;;;;;;5004543;28;20551;-83
2021/10/29 13:09:31;;;;;;;8.85;5.43;;;;;;;;;;4993700;28;20096;-83
2021/10/29 13:12:17;;;;;;;10.65;6.18;;;;;;;;;;4991761;28;20157;-82
2021/10/29 13:14:59;;;;;;;7.97;5.38;;;;;;;;;;4988928;28;20438;-82
2021/10/29 13:17:31;;;;;;;8.55;5.82;;;;;;;;;;4984927;28;20049;-82
2021/10/29 13:26:08;;;;;;;10.02;5.30;;;;;;;;;;5003933;28;20049;-83
2021/10/29 13:29:09;;;;;;;;;;;;;;;;;;5004278;28;20069;-83
2021/10/29 13:34:53;;;;;;;6.88;4.13;;;;;;;;;;5002451;28;20317;-83
2021/10/29 13:37:18;;;;;;;12.02;5.38;;;;;;;;;;5000085;28;20092;-83
2021/10/29 14:16:55;;;;;;;7.32;4.03;;;;;;;;;;5000258;28;20307;-83
2021/10/29 14:30:29;;;;;;;11.47;5.10;;;;;;;;;;4990201;28;20119;-82
2021/10/29 14:33:12;;;;;;;6.55;4.20;;;;;;;;;;4964958;28;20195;-82
2021/10/29 14:35:43;;;;;;;11.82;4.45;;;;;;;;;;4977924;28;20057;-83
2021/10/29 14:38:17;;;;;;;7.28;4.38;;;;;;;;;;4978731;28;20403;-83
2021/10/29 14:43:39;;;;;;;9.63;4.57;;;;;;;;;;4999477;28;20042;-83
2021/10/29 14:46:26;;;;;;;7.50;4.30;;;;;;;;;;4992694;28;20145;-82
2021/10/29 14:52:32;;;;;;;13.25;4.43;;;;;;;;;;5003548;28;20141;-83
2021/10/29 15:01:00;;;;;;;;;;;;;;;;;;5001450;28;20154;-82
2021/10/29 15:41:41;;;;;;;12.10;4.78;;;;;;;;;;5003104;28;20492;-83
2021/10/29 15:44:31;;;;;;;7.15;4.97;;;;;;;;;;5004612;28;20127;-82
2021/10/29 15:47:05;;;;;;;11.40;5.20;;;;;;;;;;4987798;28;20232;-83
2021/10/29 15:52:07;;;;;;;11.60;5.47;;;;;;;;;;4987432;28;20325;-82
2021/10/29 15:54:42;;;;;;;13.18;5.88;;;;;;;;;;4968680;28;20137;-83
2021/10/29 15:57:11;;;;;;;10.13;5.80;;;;;;;;;;4967162;28;20089;-83
2021/10/29 16:18:49;;;;;;;9.43;5.30;;;;;;;;;;5018306;28;20049;-83
2021/10/29 16:21:16;;;;;;;8.85;5.85;;;;;;;;;;4968417;28;20195;-82
2021/10/29 16:23:43;;;;;;;14.55;5.60;;;;;;;;;;4968262;28;20058;-83
2021/10/29 16:26:16;;;;;;;9.23;5.55;;;;;;;;;;4975254;28;20290;-83
2021/10/29 16:28:43;;;;;;;8.15;5.15;;;;;;;;;;4984998;28;20466;-82
2021/10/29 16:31:14;;;;;;;15.70;6.00;;;;;;;;;;5018068;28;20314;-82
2021/10/29 16:33:41;;;;;;;10.90;6.20;;;;;;;;;;4984933;28;20054;-82
2021/10/29 16:36:08;;;;;;;9.85;5.95;;;;;;;;;;4988178;28;20253;-82
2021/10/29 16:38:37;;;;;;;11.73;6.43;;;;;;;;;;4985978;28;20364;-81
2021/10/29 16:41:05;;;;;;;18.30;6.55;;;;;;;;;;5003806;28;20064;-82
2021/10/29 16:43:37;;;;;;;14.32;6.35;;;;;;;;;;5002336;28;20045;-82
2021/10/29 16:46:05;;;;;;;8.88;5.95;;;;;;;;;;4987252;28;20226;-82
2021/10/29 16:48:32;;;;;;;12.02;5.95;;;;;;;;;;5002989;28;20046;-82
2021/10/29 16:50:58;;;;;;;11.15;7.65;;;;;;;;;;4990454;28;20066;-82
2021/10/29 16:53:30;;;;;;;10.18;6.00;;;;;;;;;;4986839;28;20250;-82
2021/10/29 16:55:59;;;;;;;10.88;6.93;;;;;;;;;;4999812;28;20054;-83
2021/10/29 16:58:26;;;;;;;12.60;6.30;;;;;;;;;;4976468;28;20362;-82
2021/10/29 17:00:56;;;;;;;10.18;6.18;;;;;;;;;;4966038;28;20047;-82
2021/10/29 17:03:29;;;;;;;13.48;6.38;;;;;;;;;;4983741;28;20437;-83
2021/10/29 17:05:56;;;;;;;16.98;6.80;;;;;;;;;;4987821;28;20057;-84
2021/10/29 17:08:24;;;;;;;12.02;5.80;;;;;;;;;;4988679;28;20414;-82
2021/10/29 17:10:54;;;;;;;12.32;6.80;;;;;;;;;;4984717;28;20194;-82
2021/10/29 17:13:20;;;;;;;7.60;5.40;;;;;;;;;;4985065;28;20046;-83
2021/10/29 17:15:47;;;;;;;15.32;6.78;;;;;;;;;;4984738;28;20103;-83
2021/10/29 17:18:14;;;;;;;13.13;7.78;;;;;;;;;;4986780;28;20581;-83
2021/10/29 17:20:41;;;;;;;13.20;6.68;;;;;;;;;;5002048;28;20114;-82
2021/10/29 17:23:10;;;;;;;16.25;7.00;;;;;;;;;;5000862;28;20087;-82
2021/10/29 17:25:40;;;;;;;13.93;7.03;;;;;;;;;;4986292;28;20064;-83
2021/10/29 17:28:13;;;;;;;10.73;7.15;;;;;;;;;;5003061;28;20077;-83
2021/10/29 17:30:43;;;;;;;15.45;6.57;;;;;;;;;;4988994;28;20412;-83
2021/10/29 17:33:10;;;;;;;9.88;6.45;;;;;;;;;;4991377;28;20112;-83
2021/10/29 17:35:42;;;;;;;15.30;7.00;;;;;;;;;;4989251;28;20365;-83
2021/10/29 17:38:14;;;;;;;11.18;7.03;;;;;;;;;;5003924;28;20484;-83
2021/10/29 17:40:44;;;;;;;10.95;7.20;;;;;;;;;;4986987;28;20249;-83
2021/10/29 17:43:11;;;;;;;11.45;7.03;;;;;;;;;;4987519;28;20426;-83
2021/10/29 17:45:40;;;;;;;12.57;7.18;;;;;;;;;;4986867;28;20124;-83
2021/10/29 17:48:10;;;;;;;14.85;7.55;;;;;;;;;;5004854;28;20601;-83
2021/10/29 17:50:38;;;;;;;10.85;7.40;;;;;;;;;;5005359;28;20370;-83
2021/10/29 17:53:06;;;;;;;12.50;7.13;;;;;;;;;;5020674;28;20613;-83
2021/10/29 17:55:40;;;;;;;10.68;7.15;;;;;;;;;;5004304;28;20145;-84
2021/10/29 17:58:10;;;;;;;10.23;7.03;;;;;;;;;;5024583;28;20139;-83
2021/10/29 18:00:45;;;;;;;13.02;7.38;;;;;;;;;;5019465;28;20612;-83
2021/10/29 18:03:16;;;;;;;13.05;7.78;;;;;;;;;;5023441;28;20390;-82
2021/10/29 18:05:44;;;;;;;13.13;7.60;;;;;;;;;;5024102;28;20045;-82
2021/10/29 18:08:13;;;;;;;10.85;6.97;;;;;;;;;;4993148;28;20050;-83
2021/10/29 18:10:50;;;;;;;12.48;7.65;;;;;;;;;;5012736;28;20057;-83
2021/10/29 18:13:17;;;;;;;12.65;7.28;;;;;;;;;;4997924;28;20061;-83
2021/10/29 18:15:48;;;;;;;12.32;7.95;;;;;;;;;;5004515;28;20062;-83
2021/10/29 18:18:15;;;;;;;13.38;8.57;;;;;;;;;;5008678;28;20059;-83
2021/10/29 18:20:42;;;;;;;13.02;8.20;;;;;;;;;;4987362;28;20046;-83
2021/10/29 18:23:17;;;;;;;14.30;7.85;;;;;;;;;;4984370;28;20062;-83
2021/10/29 18:25:43;;;;;;;11.60;7.45;;;;;;;;;;4996547;28;20307;-83
2021/10/29 18:28:13;;;;;;;14.82;6.93;;;;;;;;;;4984586;28;20061;-83
2021/10/29 18:30:43;;;;;;;13.32;8.55;;;;;;;;;;5003644;28;20049;-83
2021/10/29 18:33:10;;;;;;;12.57;7.63;;;;;;;;;;4985512;28;20107;-83
2021/10/29 18:35:46;;;;;;;14.02;7.68;;;;;;;;;;4988383;28;20116;-82
2021/10/29 18:38:13;;;;;;;19.50;8.15;;;;;;;;;;5003022;28;20065;-83
2021/10/29 18:40:41;;;;;;;15.23;8.40;;;;;;;;;;4988286;28;20110;-83
2021/10/29 18:43:20;;;;;;;15.43;8.38;;;;;;;;;;4986451;28;20077;-83
2021/10/29 18:45:46;;;;;;;14.93;8.55;;;;;;;;;;4984421;28;20307;-83
2021/10/29 18:48:16;;;;;;;15.90;8.80;;;;;;;;;;5005492;28;20140;-83
2021/10/29 18:50:49;;;;;;;14.93;7.90;;;;;;;;;;4988532;28;20357;-83
2021/10/29 18:53:16;;;;;;;11.80;7.95;;;;;;;;;;4988676;28;20058;-83
2021/10/29 18:55:43;;;;;;;15.23;9.20;;;;;;;;;;5006624;28;20406;-83
2021/10/29 18:58:15;;;;;;;13.35;7.55;;;;;;;;;;4987672;28;20073;-83
2021/10/29 19:00:46;;;;;;;13.55;8.55;;;;;;;;;;5005829;28;20283;-83
2021/10/29 19:03:21;;;;;;;12.88;7.63;;;;;;;;;;4990836;28;20145;-83
2021/10/29 19:05:51;;;;;;;12.57;7.70;;;;;;;;;;4989237;28;20476;-82
2021/10/29 19:08:22;;;;;;;12.48;7.72;;;;;;;;;;4999062;28;20201;-83
2021/10/29 19:10:49;;;;;;;14.98;8.30;;;;;;;;;;4990528;28;20056;-83
2021/10/29 19:13:15;;;;;;;13.30;8.45;;;;;;;;;;5008196;28;20178;-83
2021/10/29 19:15:44;;;;;;;18.50;7.90;;;;;;;;;;5008842;28;20068;-83
2021/10/29 19:18:23;;;;;;;16.15;8.63;;;;;;;;;;4976494;28;20090;-84
2021/10/29 19:20:50;;;;;;;13.38;8.13;;;;;;;;;;5001578;28;20120;-82
2021/10/29 19:23:16;;;;;;;16.75;8.75;;;;;;;;;;4991412;28;20179;-82
2021/10/29 19:25:51;;;;;;;11.35;7.82;;;;;;;;;;4994597;28;20393;-82
2021/10/29 19:28:21;;;;;;;17.45;10.30;;;;;;;;;;4996083;28;20231;-83
2021/10/29 19:30:58;;;;;;;15.15;9.20;;;;;;;;;;5011026;28;20112;-83